Time;durP1;ratioP1;P1;durP2;ratioP2;P2;SDS_P1;SDS_P2;PMS_P1;PMS_P2;Temp;Humidity;BMP_temperature;BMP_pressure;BME280_temperature;BME280_humidity;BME280_pressure;Samples;Min_cycle;Max_cycle;Signal;HPM_P1;HPM_P2
2021/11/07 00:00:12;;;;;;;12.60;7.22;;;;;;;8.86;100.00;101196.34;4990105;28;20073;-87
2021/11/07 00:02:53;;;;;;;10.90;7.25;;;;;;;8.84;100.00;101187.63;5004687;28;20513;-86
2021/11/07 00:05:44;;;;;;;12.23;7.47;;;;;;;8.79;100.00;101174.66;4969217;28;20042;-86
2021/11/07 00:10:55;;;;;;;11.40;7.60;;;;;;;8.72;100.00;101178.06;4977825;28;20126;-86
2021/11/07 00:13:25;;;;;;;11.32;8.98;;;;;;;8.67;100.00;101186.50;4954876;28;20062;-88
2021/11/07 00:16:04;;;;;;;11.40;9.05;;;;;;;8.61;100.00;101171.03;4967697;28;20081;-86
2021/11/07 00:18:37;;;;;;;12.85;9.65;;;;;;;8.61;100.00;101175.53;4965925;28;20149;-87
2021/11/07 00:21:21;;;;;;;11.68;8.95;;;;;;;8.56;100.00;101167.94;4987175;28;20034;-86
2021/11/07 00:26:24;;;;;;;15.90;10.25;;;;;;;8.50;100.00;101168.50;4958209;28;20038;-84
2021/11/07 00:29:11;;;;;;;15.25;10.88;;;;;;;8.49;100.00;101158.81;4966690;28;20559;-87
2021/11/07 00:31:53;;;;;;;14.38;9.40;;;;;;;8.48;100.00;101154.41;4982987;28;20030;-85
2021/11/07 00:37:09;;;;;;;12.95;10.63;;;;;;;8.40;100.00;101135.56;4971625;28;20050;-87
2021/11/07 00:39:45;;;;;;;12.18;9.88;;;;;;;8.37;100.00;101131.28;4983087;28;20120;-86
2021/11/07 00:42:26;;;;;;;14.00;9.90;;;;;;;8.37;100.00;101133.97;4980368;28;20066;-89
2021/11/07 00:47:44;;;;;;;15.07;11.27;;;;;;;8.39;100.00;101131.19;4982673;28;20044;-87
2021/11/07 00:50:15;;;;;;;14.98;12.18;;;;;;;8.41;100.00;101126.56;4967415;28;20534;-85
2021/11/07 00:53:18;;;;;;;15.30;11.70;;;;;;;8.38;100.00;101111.59;4949617;28;20129;-88
2021/11/07 00:58:46;;;;;;;15.98;11.90;;;;;;;8.35;100.00;101125.25;4962886;28;20069;-84
2021/11/07 01:01:15;;;;;;;14.20;12.40;;;;;;;8.36;100.00;101122.44;4967180;28;20112;-84
2021/11/07 01:03:42;;;;;;;14.55;11.65;;;;;;;8.38;100.00;101110.78;4971953;28;20121;-85
2021/11/07 01:06:09;;;;;;;18.00;11.90;;;;;;;8.38;100.00;101110.78;4969974;28;20038;-85
2021/11/07 01:08:35;;;;;;;16.15;10.70;;;;;;;8.37;100.00;101112.56;4989693;28;20468;-86
2021/11/07 01:11:03;;;;;;;16.52;13.40;;;;;;;8.40;100.00;101103.47;4990029;28;20033;-86
2021/11/07 01:13:30;;;;;;;15.18;13.00;;;;;;;8.40;100.00;101108.81;4987046;28;20044;-84
2021/11/07 01:15:57;;;;;;;15.27;11.98;;;;;;;8.40;100.00;101109.69;5006564;28;20053;-86
2021/11/07 01:18:23;;;;;;;15.73;12.57;;;;;;;8.41;100.00;101094.47;4995587;28;20042;-86
2021/11/07 01:20:50;;;;;;;13.55;10.38;;;;;;;8.38;100.00;101086.69;4973461;28;20050;-85
2021/11/07 01:23:30;;;;;;;14.65;11.05;;;;;;;8.37;100.00;101077.81;5006930;28;20164;-86
2021/11/07 01:26:03;;;;;;;15.73;11.13;;;;;;;8.39;100.00;101080.38;5004764;28;20034;-87
2021/11/07 01:28:35;;;;;;;14.73;11.10;;;;;;;8.36;100.00;101071.63;4991054;28;20119;-84
2021/11/07 01:31:01;;;;;;;13.05;10.30;;;;;;;8.37;100.00;101083.16;5009206;28;20076;-83
2021/11/07 01:33:29;;;;;;;14.13;11.65;;;;;;;8.39;100.00;101065.19;4994392;28;20057;-84
2021/11/07 01:38:41;;;;;;;13.60;12.07;;;;;;;8.41;100.00;101081.09;5012367;28;20065;-84
2021/11/07 01:43:47;;;;;;;14.27;11.80;;;;;;;8.38;100.00;101060.81;5002642;28;20049;-86
2021/11/07 01:46:25;;;;;;;13.90;11.75;;;;;;;8.41;100.00;101065.06;5001443;28;20038;-86
2021/11/07 01:49:09;;;;;;;15.68;12.65;;;;;;;8.44;100.00;101046.03;4996365;28;20045;-85
2021/11/07 01:51:46;;;;;;;14.25;11.85;;;;;;;8.43;100.00;101053.22;4984791;28;20064;-88
2021/11/07 01:54:23;;;;;;;18.85;14.18;;;;;;;8.44;100.00;101041.53;4973529;28;20121;-86
2021/11/07 01:56:49;;;;;;;19.05;13.35;;;;;;;8.47;100.00;101037.72;4973850;28;20118;-85
2021/11/07 01:59:16;;;;;;;16.58;12.80;;;;;;;8.48;100.00;101020.69;4980625;28;20042;-85
2021/11/07 02:01:49;;;;;;;16.20;13.93;;;;;;;8.48;100.00;101005.47;4985117;28;20038;-84
2021/11/07 02:04:15;;;;;;;16.92;13.13;;;;;;;8.47;100.00;101000.28;4968571;28;20490;-84
2021/11/07 02:06:42;;;;;;;17.02;14.50;;;;;;;8.49;100.00;101012.53;4956504;28;20120;-84
2021/11/07 02:09:10;;;;;;;17.10;13.35;;;;;;;8.50;100.00;101008.00;4970341;28;20053;-85
2021/11/07 02:11:42;;;;;;;16.63;14.07;;;;;;;8.52;100.00;100998.03;4950646;28;20042;-85
2021/11/07 02:14:10;;;;;;;17.25;14.73;;;;;;;8.55;100.00;101001.25;4983578;28;20265;-86
2021/11/07 02:16:35;;;;;;;17.90;14.10;;;;;;;8.55;100.00;101000.41;4963609;28;20097;-86
2021/11/07 02:19:03;;;;;;;19.73;14.75;;;;;;;8.56;100.00;101002.91;4954133;28;20050;-87
2021/11/07 02:21:46;;;;;;;19.98;15.93;;;;;;;8.61;100.00;100999.81;4986082;28;20042;-86
2021/11/07 02:24:15;;;;;;;21.55;15.75;;;;;;;8.64;100.00;100993.34;4948117;28;20046;-86
2021/11/07 02:27:03;;;;;;;19.85;14.55;;;;;;;8.64;100.00;100983.47;4969527;28;20034;-84
2021/11/07 02:29:30;;;;;;;21.13;16.38;;;;;;;8.66;100.00;100985.97;4959684;28;20054;-84
2021/11/07 02:31:57;;;;;;;21.27;17.15;;;;;;;8.69;100.00;100993.72;4961089;28;20458;-86
2021/11/07 02:34:24;;;;;;;19.35;15.43;;;;;;;8.70;100.00;100982.88;4964673;28;20042;-85
2021/11/07 02:36:51;;;;;;;20.70;15.98;;;;;;;8.73;100.00;100971.03;4965886;28;20427;-85
2021/11/07 02:39:20;;;;;;;22.25;17.02;;;;;;;8.74;100.00;100972.72;4957125;28;20256;-85
2021/11/07 02:41:54;;;;;;;21.80;17.10;;;;;;;8.73;100.00;100971.88;4965477;28;20387;-86
2021/11/07 02:44:42;;;;;;;21.85;14.95;;;;;;;8.76;100.00;100987.63;4951555;28;20054;-84
2021/11/07 02:47:10;;;;;;;23.33;16.58;;;;;;;8.77;100.00;100962.56;4967503;28;20051;-86
2021/11/07 02:49:36;;;;;;;24.38;19.10;;;;;;;8.79;100.00;100959.75;4966591;28;20045;-84
2021/11/07 02:52:04;;;;;;;22.50;16.63;;;;;;;8.79;100.00;100959.75;4959236;28;20034;-85
2021/11/07 02:54:34;;;;;;;23.27;17.95;;;;;;;8.81;100.00;100953.25;4983960;28;20034;-87
2021/11/07 02:57:03;;;;;;;24.17;19.30;;;;;;;8.82;100.00;100956.78;4981454;28;20053;-84
2021/11/07 02:59:32;;;;;;;25.58;18.23;;;;;;;8.85;100.00;100966.34;4973018;28;20042;-86
2021/11/07 03:02:12;;;;;;;28.83;20.07;;;;;;;8.85;100.00;100951.13;4987926;28;20062;-86
2021/11/07 03:04:39;;;;;;;22.92;18.48;;;;;;;8.84;100.00;100944.09;4948080;28;20030;-87
2021/11/07 03:07:06;;;;;;;24.13;17.92;;;;;;;8.86;100.00;100949.28;4963091;28;20054;-85
2021/11/07 03:09:36;;;;;;;27.08;18.83;;;;;;;8.87;100.00;100937.59;4947708;28;20121;-86
2021/11/07 03:12:04;;;;;;;24.73;18.58;;;;;;;8.89;100.00;100947.16;4963733;28;20073;-86
2021/11/07 03:14:34;;;;;;;22.20;17.17;;;;;;;8.90;100.00;100931.94;4980684;28;20030;-86
2021/11/07 03:17:02;;;;;;;25.35;16.23;;;;;;;8.91;100.00;100947.00;4935550;28;20058;-87
2021/11/07 03:19:29;;;;;;;25.88;18.98;;;;;;;8.93;100.00;100940.50;4961192;28;20042;-86
2021/11/07 03:22:00;;;;;;;23.48;17.85;;;;;;;8.93;100.00;100934.31;4956100;28;20499;-85
2021/11/07 03:24:26;;;;;;;24.10;16.63;;;;;;;8.95;100.00;100927.00;4981591;28;20054;-86
2021/11/07 03:26:52;;;;;;;28.98;19.70;;;;;;;8.94;100.00;100930.63;4965618;28;20054;-85
2021/11/07 03:29:18;;;;;;;24.48;19.42;;;;;;;8.96;100.00;100926.81;4981920;28;20043;-86
2021/11/07 03:34:19;;;;;;;26.63;19.50;;;;;;;9.01;100.00;100916.50;4949407;28;20427;-86
2021/11/07 03:36:48;;;;;;;27.15;20.15;;;;;;;9.01;100.00;100921.88;4962352;28;20049;-88
2021/11/07 03:39:15;;;;;;;28.30;20.13;;;;;;;9.01;100.00;100916.50;4979790;28;20052;-88
2021/11/07 03:41:42;;;;;;;23.83;19.17;;;;;;;9.02;100.00;100912.00;4962167;28;20085;-86
2021/11/07 03:44:08;;;;;;;25.00;16.73;;;;;;;9.02;100.00;100912.84;4957849;28;20368;-86
2021/11/07 03:46:36;;;;;;;25.83;17.92;;;;;;;9.02;100.00;100910.16;4973975;28;20129;-86
2021/11/07 03:49:03;;;;;;;25.58;19.63;;;;;;;9.06;100.00;100909.84;4954117;28;20335;-87
2021/11/07 03:51:29;;;;;;;26.33;20.13;;;;;;;9.07;100.00;100904.38;4982020;28;20122;-87
2021/11/07 03:53:54;;;;;;;26.63;20.08;;;;;;;9.09;100.00;100902.38;4955950;28;20759;-86
2021/11/07 03:56:20;;;;;;;24.85;19.45;;;;;;;9.10;100.00;100901.38;4948033;28;20042;-86
2021/11/07 03:58:45;;;;;;;25.58;19.45;;;;;;;9.13;100.00;100897.56;4979831;28;20042;-86
2021/11/07 04:01:11;;;;;;;26.17;18.00;;;;;;;9.14;100.00;100889.34;4946596;28;20557;-88
2021/11/07 04:03:36;;;;;;;28.33;19.10;;;;;;;9.15;100.00;100885.72;4946004;28;20035;-86
2021/11/07 04:06:02;;;;;;;29.05;21.52;;;;;;;9.18;100.00;100877.38;4987021;28;20038;-85
2021/11/07 04:08:28;;;;;;;26.90;20.75;;;;;;;9.19;100.00;100879.03;4979355;28;20060;-85
2021/11/07 04:10:54;;;;;;;28.73;19.05;;;;;;;9.21;100.00;100908.34;4978990;28;20046;-87
2021/11/07 04:13:20;;;;;;;30.15;21.65;;;;;;;9.23;100.00;100904.50;4948919;28;20042;-86
2021/11/07 04:15:45;;;;;;;27.83;18.95;;;;;;;9.24;100.00;100908.88;4960127;28;20038;-85
2021/11/07 04:18:11;;;;;;;26.88;19.02;;;;;;;9.26;100.00;100889.97;4964038;28;20133;-86
2021/11/07 04:20:37;;;;;;;28.48;18.48;;;;;;;9.29;100.00;100892.34;4948784;28;20121;-86
2021/11/07 04:23:03;;;;;;;31.45;19.23;;;;;;;9.30;100.00;100888.69;4958848;28;20049;-86
2021/11/07 04:25:29;;;;;;;30.80;22.70;;;;;;;9.31;100.00;100905.59;4982771;28;20499;-86
2021/11/07 04:27:54;;;;;;;29.70;19.40;;;;;;;9.31;100.00;100901.06;4979263;28;20118;-86
2021/11/07 04:30:20;;;;;;;29.63;18.45;;;;;;;9.32;100.00;100907.25;4954973;28;20042;-87
2021/11/07 04:32:46;;;;;;;32.40;22.33;;;;;;;9.34;100.00;100894.56;4962882;28;20403;-85
2021/11/07 04:35:11;;;;;;;32.88;22.38;;;;;;;9.35;100.00;100890.88;4964156;28;20089;-86
2021/11/07 04:37:39;;;;;;;37.40;22.77;;;;;;;9.37;100.00;100888.91;4971812;28;20054;-86
2021/11/07 04:40:07;;;;;;;33.97;23.63;;;;;;;9.37;100.00;100879.03;4950763;28;20077;-86
2021/11/07 04:42:34;;;;;;;29.52;18.83;;;;;;;9.38;100.00;100864.66;4985903;28;20045;-87
2021/11/07 04:45:00;;;;;;;31.02;19.60;;;;;;;9.40;100.00;100869.84;4985820;28;20048;-87
2021/11/07 04:47:26;;;;;;;32.72;21.45;;;;;;;9.42;100.00;100866.03;4968695;28;20089;-86
2021/11/07 04:49:54;;;;;;;32.05;20.88;;;;;;;9.42;100.00;100865.19;4965230;28;20114;-86
2021/11/07 04:52:20;;;;;;;37.72;21.38;;;;;;;9.45;100.00;100872.91;4951317;28;20081;-88
2021/11/07 04:54:46;;;;;;;34.95;23.83;;;;;;;9.44;100.00;100873.91;4932281;28;20042;-86
2021/11/07 04:57:12;;;;;;;37.13;25.45;;;;;;;9.45;100.00;100868.38;4963976;28;20436;-85
2021/11/07 04:59:38;;;;;;;35.70;23.20;;;;;;;9.45;100.00;100856.84;4976180;28;20124;-86
2021/11/07 05:02:03;;;;;;;36.08;22.02;;;;;;;9.45;100.00;100871.06;4953027;28;20042;-88
2021/11/07 05:04:29;;;;;;;36.83;21.38;;;;;;;9.45;100.00;100851.47;4951442;28;20504;-86
2021/11/07 05:06:56;;;;;;;29.15;18.48;;;;;;;9.43;100.00;100854.28;4976833;28;20101;-86
2021/11/07 05:09:22;;;;;;;29.35;15.18;;;;;;;9.43;100.00;100856.13;4987260;28;20494;-86
2021/11/07 05:11:48;;;;;;;22.48;13.50;;;;;;;9.43;100.00;100850.78;4964144;28;20266;-87
2021/11/07 05:14:14;;;;;;;16.95;10.27;;;;;;;9.43;100.00;100866.84;4982490;28;20501;-85
2021/11/07 05:16:39;;;;;;;20.58;10.85;;;;;;;9.42;100.00;100857.16;4969967;28;20434;-85
2021/11/07 05:19:05;;;;;;;17.65;9.30;;;;;;;9.42;100.00;100859.81;4948308;28;20089;-85
2021/11/07 05:21:30;;;;;;;18.48;9.65;;;;;;;9.42;100.00;100865.19;4984760;28;20061;-87
2021/11/07 05:23:56;;;;;;;18.20;9.02;;;;;;;9.40;100.00;100859.13;4983724;28;20101;-89
2021/11/07 05:26:22;;;;;;;15.35;9.70;;;;;;;9.39;100.00;100869.00;4962279;28;20066;-87
2021/11/07 05:28:47;;;;;;;18.33;9.20;;;;;;;9.37;100.00;100872.84;4985288;28;20368;-86
2021/11/07 05:31:13;;;;;;;19.05;9.65;;;;;;;9.39;100.00;100873.53;4965534;28;21095;-85
2021/11/07 05:33:39;;;;;;;18.77;9.02;;;;;;;9.37;100.00;100881.72;4984161;28;20038;-84
2021/11/07 05:36:05;;;;;;;15.95;8.27;;;;;;;9.38;100.00;100880.72;4964128;28;20482;-86
2021/11/07 05:38:30;;;;;;;18.52;9.15;;;;;;;9.37;100.00;100868.31;4983737;28;20070;-86
2021/11/07 05:40:57;;;;;;;22.67;9.70;;;;;;;9.36;100.00;100873.84;4983791;28;20057;-84
2021/11/07 05:43:23;;;;;;;18.88;8.77;;;;;;;9.36;100.00;100880.03;4966534;28;20038;-85
2021/11/07 05:45:49;;;;;;;20.17;8.55;;;;;;;9.35;100.00;100888.22;4976212;28;20441;-86
2021/11/07 05:48:15;;;;;;;18.70;9.05;;;;;;;9.35;100.00;100880.16;4972435;28;20046;-87
2021/11/07 05:50:42;;;;;;;23.67;9.18;;;;;;;9.34;100.00;100883.84;4969923;28;20402;-84
2021/11/07 05:53:08;;;;;;;20.25;8.85;;;;;;;9.35;100.00;100873.00;4964873;28;20125;-86
2021/11/07 05:55:34;;;;;;;22.70;8.38;;;;;;;9.32;100.00;100884.03;4987219;28;20471;-86
2021/11/07 05:58:00;;;;;;;21.20;7.68;;;;;;;9.34;100.00;100895.41;4967465;28;20050;-86
2021/11/07 06:00:26;;;;;;;22.48;8.52;;;;;;;9.33;100.00;100882.19;4987879;28;20038;-84
2021/11/07 06:02:52;;;;;;;18.30;7.68;;;;;;;9.33;100.00;100890.22;4988512;28;20050;-84
2021/11/07 06:05:19;;;;;;;16.48;6.97;;;;;;;9.32;100.00;100886.69;4977802;28;20034;-87
2021/11/07 06:07:47;;;;;;;18.92;6.68;;;;;;;9.32;100.00;100892.06;4990012;28;20042;-89
2021/11/07 06:10:13;;;;;;;15.50;5.60;;;;;;;9.33;100.00;100887.53;4996135;28;20042;-86
2021/11/07 06:12:38;;;;;;;21.42;5.40;;;;;;;9.33;100.00;100893.72;5001301;28;20034;-88
2021/11/07 06:15:05;;;;;;;19.77;5.68;;;;;;;9.32;100.00;100885.84;4983812;28;20046;-87
2021/11/07 06:17:30;;;;;;;16.08;5.15;;;;;;;9.33;100.00;100896.41;4996987;28;20041;-85
2021/11/07 06:19:56;;;;;;;17.73;5.47;;;;;;;9.34;100.00;100894.56;4989728;28;20042;-84
2021/11/07 06:22:21;;;;;;;19.08;5.82;;;;;;;9.34;100.00;100898.09;4995286;28;20065;-87
2021/11/07 06:24:46;;;;;;;18.13;4.43;;;;;;;9.32;100.00;100892.06;4967342;28;20040;-86
2021/11/07 06:27:12;;;;;;;16.35;4.93;;;;;;;9.34;100.00;100891.91;4978892;28;20053;-84
2021/11/07 06:29:40;;;;;;;19.23;4.63;;;;;;;9.33;100.00;100888.38;5006473;28;20474;-85
2021/11/07 06:32:06;;;;;;;17.92;5.15;;;;;;;9.34;100.00;100894.56;4996054;28;20406;-86
2021/11/07 06:34:31;;;;;;;11.77;4.28;;;;;;;9.36;100.00;100895.25;4989660;28;20034;-85
2021/11/07 06:36:57;;;;;;;18.30;5.25;;;;;;;9.35;100.00;100901.59;4981689;28;20066;-87
2021/11/07 06:39:23;;;;;;;14.00;4.85;;;;;;;9.35;100.00;100902.47;5005328;28;20042;-85
2021/11/07 06:41:48;;;;;;;15.25;4.95;;;;;;;9.37;100.00;100910.31;4974036;28;20545;-88
2021/11/07 06:44:14;;;;;;;18.52;6.07;;;;;;;9.38;100.00;100909.31;5001067;28;20446;-85
2021/11/07 06:46:40;;;;;;;15.88;5.22;;;;;;;9.39;100.00;100911.03;4999740;28;20508;-86
2021/11/07 06:49:10;;;;;;;20.35;5.32;;;;;;;9.39;100.00;100917.22;4987781;28;20375;-85
2021/11/07 06:51:36;;;;;;;15.68;5.40;;;;;;;9.40;100.00;100926.94;4992497;28;20068;-89
2021/11/07 06:54:01;;;;;;;15.68;4.53;;;;;;;9.41;100.00;100917.09;5008355;28;20042;-85
2021/11/07 06:56:27;;;;;;;23.77;5.25;;;;;;;9.40;100.00;100929.59;4974826;28;20033;-85
2021/11/07 06:58:55;;;;;;;15.18;5.20;;;;;;;9.40;100.00;100924.25;4979861;28;20065;-86
2021/11/07 07:01:21;;;;;;;19.08;5.32;;;;;;;9.41;100.00;100925.94;4991253;28;20498;-87
2021/11/07 07:03:47;;;;;;;18.98;4.93;;;;;;;9.42;100.00;100930.31;4982431;28;20068;-85
2021/11/07 07:06:12;;;;;;;22.83;5.57;;;;;;;9.42;100.00;100929.47;4988165;28;20046;-86
2021/11/07 07:08:52;;;;;;;16.02;3.75;;;;;;;9.42;100.00;100926.78;4989197;28;20245;-86
2021/11/07 07:11:32;;;;;;;18.75;4.75;;;;;;;9.40;100.00;100931.44;4953558;28;20455;-87
2021/11/07 07:14:06;;;;;;;18.52;5.47;;;;;;;9.40;100.00;100931.44;4985948;28;20528;-88
2021/11/07 07:34:31;;;;;;;14.38;4.40;;;;;;;9.43;100.00;100941.84;4995079;28;20240;-84
2021/11/07 07:36:57;;;;;;;11.48;3.65;;;;;;;9.42;100.00;100954.41;4971629;28;20062;-87
2021/11/07 07:39:23;;;;;;;14.90;4.43;;;;;;;9.42;100.00;100941.00;4988389;28;20041;-87
2021/11/07 07:41:48;;;;;;;18.40;4.75;;;;;;;9.41;100.00;100934.00;4987216;28;20051;-86
2021/11/07 07:44:14;;;;;;;16.20;4.60;;;;;;;9.42;100.00;100945.53;4987151;28;20498;-85
2021/11/07 07:46:43;;;;;;;15.13;4.70;;;;;;;9.39;100.00;100940.50;4983562;28;20093;-85
2021/11/07 07:49:12;;;;;;;14.35;4.25;;;;;;;9.35;100.00;100934.59;4972643;28;20047;-84
2021/11/07 07:51:38;;;;;;;18.08;4.72;;;;;;;9.35;100.00;100945.31;4971598;28;20034;-85
2021/11/07 07:54:05;;;;;;;12.27;3.92;;;;;;;9.31;100.00;100949.28;4974585;28;20090;-85
2021/11/07 07:56:33;;;;;;;17.48;4.00;;;;;;;9.32;100.00;100959.00;4987620;28;20061;-85
2021/11/07 07:58:59;;;;;;;19.38;4.75;;;;;;;9.33;100.00;100941.09;4971059;28;20042;-85
2021/11/07 08:01:24;;;;;;;21.83;4.50;;;;;;;9.34;100.00;100943.63;4987529;28;20085;-86
2021/11/07 08:03:52;;;;;;;24.65;4.40;;;;;;;9.35;100.00;100941.78;4971209;28;20076;-85
2021/11/07 08:06:18;;;;;;;16.13;4.05;;;;;;;9.38;100.00;100950.38;4989264;28;20073;-87
2021/11/07 08:08:43;;;;;;;13.57;3.47;;;;;;;9.41;100.00;100951.91;4965924;28;20470;-86
2021/11/07 08:11:08;;;;;;;19.15;3.67;;;;;;;9.43;100.00;100947.22;4984203;28;20423;-86
2021/11/07 08:13:34;;;;;;;16.67;4.43;;;;;;;9.49;100.00;100951.94;4999237;28;20100;-84
2021/11/07 08:16:00;;;;;;;19.88;4.35;;;;;;;9.51;100.00;100960.69;4979616;28;20294;-86
2021/11/07 08:18:26;;;;;;;18.38;4.35;;;;;;;9.51;100.00;100966.03;4950520;28;20053;-85
2021/11/07 08:20:51;;;;;;;13.18;3.53;;;;;;;9.48;99.98;100966.34;4983945;28;20506;-84
2021/11/07 08:23:20;;;;;;;13.98;3.08;;;;;;;9.44;99.23;100956.94;5001173;28;20050;-85
2021/11/07 08:25:45;;;;;;;18.85;4.82;;;;;;;9.41;99.25;100965.28;5004120;28;20038;-85
2021/11/07 08:28:11;;;;;;;17.90;4.50;;;;;;;9.39;99.48;100962.75;4959112;28;20048;-85
2021/11/07 08:30:41;;;;;;;16.52;4.93;;;;;;;9.42;99.82;100969.66;4983226;28;20042;-85
2021/11/07 08:33:08;;;;;;;16.88;4.03;;;;;;;9.42;99.16;100978.53;4976013;28;20148;-85
2021/11/07 08:35:38;;;;;;;17.23;3.55;;;;;;;9.46;99.53;100969.16;4974524;28;20395;-85
2021/11/07 08:38:10;;;;;;;15.07;3.80;;;;;;;9.53;98.71;100979.31;4965828;28;20042;-85
2021/11/07 08:40:43;;;;;;;12.98;4.22;;;;;;;9.62;97.96;100979.22;4982107;28;20072;-84
2021/11/07 09:00:15;;;;;;;10.20;3.33;;;;;;;9.67;95.76;100978.75;4978275;28;20509;-85
2021/11/07 09:02:58;;;;;;;15.27;3.80;;;;;;;9.58;95.25;100977.84;5000404;28;20112;-85
2021/11/07 09:08:17;;;;;;;13.00;3.33;;;;;;;9.61;94.77;100995.44;4942543;28;20117;-85
2021/11/07 09:10:47;;;;;;;15.35;3.28;;;;;;;9.62;94.67;100983.72;4960337;28;20410;-85
2021/11/07 09:13:15;;;;;;;16.92;3.78;;;;;;;9.61;94.92;100988.25;4971009;28;20108;-85
2021/11/07 09:15:44;;;;;;;11.68;2.72;;;;;;;9.58;94.64;100988.56;4957571;28;20085;-85
2021/11/07 09:18:10;;;;;;;14.73;2.47;;;;;;;9.56;94.76;100995.06;4948488;28;20058;-86
2021/11/07 09:28:35;;;;;;;15.82;4.07;;;;;;;9.52;96.09;100994.50;5009135;28;20049;-86
2021/11/07 09:33:35;;;;;;;20.30;5.53;;;;;;;9.56;97.69;101001.25;5006199;28;20044;-87
2021/11/07 09:38:32;;;;;;;14.95;3.58;;;;;;;9.73;95.96;101001.44;5007276;28;20049;-86
2021/11/07 09:41:23;;;;;;;14.57;2.95;;;;;;;9.85;95.46;100974.22;4989517;28;20095;-85
2021/11/07 09:44:13;;;;;;;20.13;3.97;;;;;;;9.90;94.37;100985.31;4975563;28;20041;-86
2021/11/07 09:46:42;;;;;;;20.27;3.30;;;;;;;9.92;93.70;100971.75;4966423;28;20042;-86
2021/11/07 09:49:21;;;;;;;12.70;3.00;;;;;;;9.92;93.95;100971.75;4975493;28;20037;-86
2021/11/07 09:51:55;;;;;;;12.73;2.72;;;;;;;9.92;92.97;100974.44;5011041;28;20034;-86
2021/11/07 09:54:21;;;;;;;16.25;3.50;;;;;;;9.90;92.65;100982.63;4976174;28;20050;-86
2021/11/07 09:56:51;;;;;;;12.95;2.88;;;;;;;9.90;90.71;100981.81;4989509;28;20164;-86
2021/11/07 09:59:17;;;;;;;14.32;2.55;;;;;;;9.90;90.62;100971.09;4970233;28;20049;-86
2021/11/07 10:01:44;;;;;;;16.58;3.13;;;;;;;9.92;91.58;100998.56;5007198;28;20089;-86
2021/11/07 10:04:11;;;;;;;13.75;2.85;;;;;;;9.90;90.08;100992.53;4987659;28;20061;-86
2021/11/07 10:09:11;;;;;;;14.23;2.60;;;;;;;9.83;85.37;100986.94;5006132;28;20327;-86
2021/11/07 10:12:06;;;;;;;11.55;2.53;;;;;;;9.91;86.09;100988.84;4991499;28;20038;-86
2021/11/07 10:14:51;;;;;;;9.52;2.13;;;;;;;10.01;86.03;100991.41;4999519;28;20108;-86
2021/11/07 10:17:50;;;;;;;7.93;2.28;;;;;;;10.08;86.20;100979.94;4982199;28;20050;-85
2021/11/07 10:20:33;;;;;;;;;;;;;;;10.15;86.32;100993.53;4985408;28;20046;-86
2021/11/07 10:23:33;;;;;;;10.40;1.90;;;;;;;10.06;86.84;100971.19;4971931;28;20370;-86
2021/11/07 10:31:46;;;;;;;10.68;2.08;;;;;;;10.08;89.25;100968.38;5007201;28;20070;-86
2021/11/07 10:37:09;;;;;;;14.23;2.63;;;;;;;10.22;89.72;100956.22;4996940;28;20042;-86
2021/11/07 10:52:58;;;;;;;13.65;2.50;;;;;;;10.13;87.92;100956.16;4981512;28;20531;-86
2021/11/07 10:55:30;;;;;;;11.93;3.60;;;;;;;10.13;88.62;100953.50;4973371;28;20402;-86
2021/11/07 10:58:01;;;;;;;11.07;2.60;;;;;;;10.07;88.09;100972.88;4989016;28;20055;-86
2021/11/07 11:00:36;;;;;;;7.38;2.17;;;;;;;9.99;86.97;100970.16;4971510;28;20061;-86
2021/11/07 11:03:05;;;;;;;13.05;3.28;;;;;;;9.99;88.63;100966.63;4992219;28;20130;-86
2021/11/07 11:05:47;;;;;;;13.73;2.53;;;;;;;9.94;88.93;100961.72;4972774;28;20042;-86
2021/11/07 11:08:26;;;;;;;9.65;2.50;;;;;;;9.90;89.03;100966.56;4968193;28;20177;-87
2021/11/07 11:11:10;;;;;;;;;;;;;;;9.94;88.22;100967.91;4989233;28;20442;-86
2021/11/07 11:24:58;;;;;;;10.90;2.53;;;;;;;9.82;92.00;100963.81;5001354;28;20308;-86
2021/11/07 11:30:05;;;;;;;13.35;2.47;;;;;;;10.00;92.54;100965.63;4995241;28;20038;-87
2021/11/07 11:40:28;;;;;;;16.02;3.50;;;;;;;10.06;99.80;100968.50;5004490;28;20281;-86
2021/11/07 11:45:24;;;;;;;14.05;2.97;;;;;;;9.94;99.26;100977.81;5008413;28;20037;-86
2021/11/07 11:48:07;;;;;;;10.90;2.55;;;;;;;9.83;98.08;100964.66;4970562;28;20053;-85
2021/11/07 11:50:57;;;;;;;9.75;2.17;;;;;;;9.55;96.14;100967.44;4990172;28;20033;-86
2021/11/07 11:56:05;;;;;;;9.98;2.63;;;;;;;9.03;100.00;100962.72;5009117;28;20465;-87
2021/11/07 11:58:49;;;;;;;9.13;2.95;;;;;;;8.96;100.00;100960.78;4960439;28;20076;-87
2021/11/07 12:01:19;;;;;;;9.00;2.47;;;;;;;8.86;100.00;100950.16;5005073;28;20050;-87
2021/11/07 12:09:55;;;;;;;12.38;3.40;;;;;;;8.89;100.00;100933.78;5003528;28;20386;-85
2021/11/07 12:12:35;;;;;;;12.32;3.42;;;;;;;8.89;100.00;100931.13;4990072;28;20073;-87
2021/11/07 12:15:49;;;;;;;13.93;2.88;;;;;;;8.86;100.00;100938.56;5009015;28;20056;-86
2021/11/07 12:18:05;;;;;;;14.35;3.75;;;;;;;8.96;100.00;100934.84;4990387;28;20041;-87
2021/11/07 12:20:36;;;;;;;15.82;4.53;;;;;;;8.99;100.00;100939.06;4986293;28;20049;-86
2021/11/07 12:23:22;;;;;;;9.60;3.00;;;;;;;9.04;100.00;100926.09;4988033;28;20080;-86
2021/11/07 12:25:50;;;;;;;16.10;3.45;;;;;;;9.32;100.00;100939.41;4983857;28;20060;-86
2021/11/07 12:28:17;;;;;;;14.95;3.40;;;;;;;9.46;100.00;100945.06;5005483;28;20058;-86
2021/11/07 12:30:43;;;;;;;15.80;4.03;;;;;;;9.59;100.00;100946.53;4974376;28;20041;-86
2021/11/07 12:33:11;;;;;;;11.55;3.05;;;;;;;9.79;100.00;100953.41;4984321;28;20388;-86
2021/11/07 12:35:55;;;;;;;9.90;2.50;;;;;;;9.94;100.00;100937.59;5001129;28;20486;-85
2021/11/07 12:41:21;;;;;;;11.23;1.92;;;;;;;10.11;95.27;100935.88;5000787;28;20505;-86
2021/11/07 12:43:52;;;;;;;12.18;2.63;;;;;;;10.16;95.15;100931.72;4984607;28;20487;-85
2021/11/07 12:49:00;;;;;;;12.88;2.47;;;;;;;10.35;94.48;100927.16;5000208;28;20298;-86
2021/11/07 12:51:57;;;;;;;8.77;2.63;;;;;;;10.41;95.87;100931.88;4969873;28;20038;-86
2021/11/07 12:54:25;;;;;;;13.52;2.42;;;;;;;10.38;93.32;100924.97;4968028;28;20038;-86
2021/11/07 12:57:05;;;;;;;12.48;3.08;;;;;;;10.46;93.00;100921.50;4981821;28;20053;-87
2021/11/07 12:59:36;;;;;;;12.25;2.80;;;;;;;10.60;92.78;100934.31;4976067;28;20169;-87
2021/11/07 13:02:29;;;;;;;12.50;3.08;;;;;;;10.65;91.03;100906.19;4990123;28;20041;-86
2021/11/07 13:05:04;;;;;;;11.23;2.95;;;;;;;10.62;91.05;100934.19;5009707;28;20037;-86
2021/11/07 13:07:34;;;;;;;10.63;2.35;;;;;;;10.44;89.07;100910.09;4974897;28;20042;-86
2021/11/07 13:10:08;;;;;;;12.77;2.75;;;;;;;10.48;91.20;100949.03;4964246;28;20042;-87
2021/11/07 13:12:38;;;;;;;12.98;2.08;;;;;;;10.42;88.04;100933.56;4992138;28;20079;-87
2021/11/07 13:24:11;;;;;;;13.52;2.78;;;;;;;10.69;89.81;100929.00;5008964;28;20061;-86
2021/11/07 13:29:30;;;;;;;10.10;2.42;;;;;;;10.68;87.61;100925.47;4975189;28;20049;-88
2021/11/07 13:34:33;;;;;;;16.10;3.00;;;;;;;10.61;86.90;100927.09;4997519;28;20056;-87
2021/11/07 13:37:02;;;;;;;13.15;2.90;;;;;;;10.62;88.07;100931.50;5000028;28;20427;-86
2021/11/07 13:39:31;;;;;;;15.15;3.55;;;;;;;10.65;89.43;100930.34;4974685;28;20050;-86
2021/11/07 13:42:15;;;;;;;;;;;;;;;10.68;90.76;100932.69;5011483;28;20072;-88
2021/11/07 13:44:52;;;;;;;12.43;2.65;;;;;;;10.66;91.88;100927.47;4973741;28;19939;-84
2021/11/07 13:47:18;;;;;;;12.27;2.95;;;;;;;10.72;93.40;100923.31;4987040;28;20038;-84
2021/11/07 13:49:53;;;;;;;14.70;2.45;;;;;;;10.68;90.79;100921.97;5010419;28;20049;-85
2021/11/07 13:52:19;;;;;;;9.38;2.15;;;;;;;10.61;90.54;100930.63;5013918;28;20038;-84
2021/11/07 13:54:47;;;;;;;12.50;2.65;;;;;;;10.70;90.94;100925.28;4976944;28;20038;-86
2021/11/07 13:57:13;;;;;;;14.48;2.97;;;;;;;10.75;90.68;100934.53;4990412;28;20042;-87
2021/11/07 13:59:42;;;;;;;15.70;3.00;;;;;;;10.74;89.89;100915.94;4995169;28;20525;-86